x

9440910 - Toke Point, Wa (tokw1) Weather Station

6:54 - Tue 1st Sep 2015 All times are PDT. -7 hours from GMT.

  • Wind
    11mph, 17mph gusts
  • Sea Temp 60°f
  • Luft Temp 59°f
  • Sea Pressure 1011.5mb
  • 9440910 - Toke Point, Wa
  • 9440910 - Toke Point, Wa

More Historic Weather Station data

Upgrade to MSW Pro to gain access to the past 30 days of data for over 8000 Wavebouys and Weather Stations around the globe.

Join Pro

Comparision Forecast

View Surf forecast
   
Di 09/01 6:54 11 17 mph 1011.5mb 60f 59f
6:48 13 17 mph 1011.4mb 60f 59f
6:42 13 17 mph 1011.5mb 61f 60f
6:36 14 18 mph 1011.4mb 61f 60f
6:30 11 16 mph 1011.4mb 61f 60f
6:24 11 15 mph 1011.4mb 60f 60f
6:18 11 17 mph 1011.5mb 60f 60f
6:12 11 18 mph 1011.4mb 60f 60f
6:06 14 18 mph 1011.5mb 60f 60f
6:00 11 17 mph 1011.6mb 60f 60f
5:54 14 18 mph 1011.6mb 60f 60f
5:48 13 18 mph 1011.6mb 60f 60f
5:42 16 21 mph 1011.6mb 60f 60f
5:36 15 21 mph 1011.6mb 60f 60f
5:30 15 18 mph 1011.7mb 60f 60f
5:24 14 18 mph 1011.8mb 60f 60f
5:18 15 22 mph 1011.8mb 60f 60f
5:12 11 17 mph 1011.9mb 60f 60f
5:06 11 16 mph 1012mb 60f 60f
5:00 10 13 mph 1011.9mb 60f 60f
4:54 9 14 mph 1012mb 60f 60f
4:48 9 14 mph 1012mb 60f 60f
4:42 6 8 mph 1012.1mb 59f 60f
4:36 7 10 mph 1012.2mb 60f 60f
4:30 8 11 mph 1012.2mb 60f 60f
4:24 9 14 mph 1012.3mb 60f 60f
4:18 10 15 mph 1012.3mb 60f 60f
4:12 11 15 mph 1012.3mb 60f 60f
4:06 10 13 mph 1012.3mb 60f 60f
4:00 11 14 mph 1012.4mb 60f 60f
3:54 9 13 mph 1012.4mb 60f 60f
3:48 9 15 mph 1012.4mb 59f 60f
3:42 11 14 mph 1012.4mb 59f 60f
3:36 9 13 mph 1012.4mb 59f 60f
3:30 10 13 mph - - 60f
3:24 9 13 mph - - 60f
3:18 10 14 mph 1012.4mb 58f 60f
3:12 9 13 mph 1012.5mb 58f 60f
3:06 8 11 mph 1012.5mb 58f 60f
3:00 9 11 mph 1012.6mb 58f 60f
2:54 9 13 mph 1012.6mb 58f 60f
2:48  -  mph 1012.5mb 58f 60f
2:42  -  mph 1012.5mb 59f 60f
2:36  -  mph 1012.6mb 60f 60f
2:30 10 14 mph 1012.6mb 60f 60f
2:24 10 14 mph 1012.7mb 60f 60f
2:18 10 13 mph 1012.7mb 60f 60f
2:12 9 11 mph 1012.6mb 60f 61f
2:06 9 14 mph 1012.7mb 61f 61f
2:00 8 11 mph 1012.7mb 60f 61f
1:54 9 13 mph 1012.7mb 61f 61f
1:48 10 13 mph 1012.7mb 61f 61f
1:42 10 14 mph 1012.8mb 61f 61f
1:36 9 13 mph 1012.9mb 61f 61f
1:30 9 13 mph 1012.9mb 61f 61f
1:24 10 13 mph 1012.9mb 61f 61f
1:18 9 13 mph - 61f 61f
1:12 13 17 mph - 61f 62f
1:06 10 14 mph - 61f 62f
1:00 11 14 mph 1012.9mb 61f 62f
12:54 10 14 mph 1012.9mb 61f 62f
12:48 10 14 mph 1012.9mb 61f 62f
12:42 10 15 mph 1013mb 61f 62f
12:36 10 14 mph 1013mb 61f 62f
12:30 11 15 mph 1013.1mb 61f 62f
12:24 10 14 mph 1013.1mb 61f 62f
12:18 10 14 mph 1013.1mb 61f 62f
12:12 10 14 mph 1013.2mb 61f 62f
12:06 9 15 mph 1013.2mb 61f 62f
12:00 13 16 mph - 61f 62f
Mo 08/31 11:54 13 16 mph - 61f 62f
11:48 10 15 mph 1013.2mb 61f 62f
11:42 10 14 mph 1013.2mb 61f 62f
11:36 11 15 mph 1013.2mb 61f 62f
11:30 11 15 mph 1013.2mb 61f 62f
11:24 13 16 mph 1013.3mb 61f 62f
11:18 11 14 mph 1013.3mb 62f 62f
11:12 11 16 mph 1013.4mb 62f 62f
11:06 14 17 mph 1013.4mb 62f 62f
11:00 13 16 mph 1013.4mb 62f 62f
10:54 11 14 mph 1013.5mb 62f 62f
10:48 13 15 mph 1013.4mb 62f 62f
10:42 11 16 mph 1013.5mb 62f 62f
10:36 13 15 mph 1013.5mb 62f 62f
10:30 11 14 mph 1013.5mb 62f 62f
10:24 10 15 mph 1013.6mb 62f 62f
10:18 13 16 mph 1013.5mb 62f 62f
10:12 13 15 mph 1013.6mb 63f 62f
10:06 11 16 mph 1013.6mb 62f 62f
10:00 11 17 mph 1013.6mb 62f -
9:54 11 16 mph 1013.6mb 63f -
9:48 10 15 mph 1013.6mb 63f 62f
9:42 13 16 mph 1013.5mb 63f 62f
9:36 10 16 mph 1013.5mb 63f 62f
9:30 11 15 mph 1013.5mb 63f 62f
9:24 13 16 mph 1013.5mb 63f 62f
9:18 14 16 mph 1013.6mb 63f 62f
9:12 13 16 mph 1013.6mb 63f 62f
9:06 13 17 mph 1013.5mb 63f 62f
9:00 11 15 mph - 63f 62f
8:54 11 18 mph - 63f 62f
8:48 13 16 mph 1013.3mb 63f 62f
8:42 11 17 mph 1013.4mb 62f 62f
8:36 13 15 mph 1013.4mb 61f 62f
8:30 11 17 mph 1013.3mb 61f 62f
8:24 10 16 mph 1013.4mb 61f 62f
8:18 11 18 mph 1013.3mb 62f 62f
8:12 14 17 mph 1013.3mb 62f 62f
8:06 11 16 mph 1013.3mb 61f 62f
8:00 11 15 mph 1013.4mb 63f 62f
7:54 10 15 mph 1013.4mb 62f 62f
7:48 9 14 mph 1013.5mb 61f 62f
7:42 9 17 mph 1013.5mb 62f 62f
7:36 11 15 mph 1013.6mb 61f 62f
7:30 11 15 mph 1013.6mb 61f 62f
7:00 11 16 mph 1013.7mb 61f 62f
6:54 13 18 mph 1013.8mb 61f 62f
6:48 13 16 mph 1013.8mb 61f 62f
6:42 13 16 mph 1013.9mb 61f 62f
6:36 11 16 mph 1013.9mb 61f 62f
6:30 10 15 mph 1014mb 61f -
6:24 9 15 mph 1013.9mb 60f -
6:18 11 16 mph 1014mb 60f -
6:12 14 17 mph 1014mb 60f -
6:06 13 16 mph 1014.1mb 60f -
6:00 13 17 mph 1014.1mb 60f 62f
5:54 13 18 mph 1014mb 61f 62f
5:48 15 18 mph 1014.1mb 60f 62f
5:42 13 17 mph 1014.1mb 60f 62f
5:36 14 20 mph 1014.2mb 60f 62f
5:30 13 15 mph 1014.2mb 60f 62f
5:24 11 17 mph 1014.2mb 60f 62f
5:18 14 18 mph 1014.2mb 59f 62f
5:12 14 18 mph 1014.3mb 60f 62f
5:06 13 17 mph 1014.4mb 60f 62f
5:00 13 17 mph 1014.4mb 60f 62f
4:54 11 15 mph 1014.4mb 60f 62f
4:48 11 16 mph 1014.5mb 59f 62f
4:42 10 14 mph 1014.5mb 60f 62f
4:36 10 15 mph 1014.5mb 59f 62f
4:00 8 11 mph 1014.8mb 59f 62f
3:54 8 13 mph 1014.8mb 59f 62f
3:48 10 13 mph 1014.9mb 59f 61f
3:42 9 13 mph 1014.9mb 59f 61f
3:36 8 13 mph 1015mb 59f 62f
3:30 9 14 mph 1015mb 58f 61f
3:24 9 14 mph 1015mb 58f 61f
3:18 10 15 mph 1015.1mb 58f 61f
3:12 10 15 mph 1015.1mb 58f 61f
3:06 10 16 mph 1015.1mb 58f 62f
3:00 13 15 mph 1015mb 58f 61f
2:54 11 16 mph 1015.1mb 58f 61f
2:48 11 14 mph 1015.1mb 58f 61f
2:42 11 14 mph 1015.2mb 58f 61f
2:36 10 14 mph 1015.2mb 59f 61f
2:30 10 14 mph 1015.3mb 58f 61f
2:24 11 15 mph 1015.4mb 59f 61f
2:18 11 16 mph 1015.5mb 58f 61f
2:12 11 17 mph 1015.5mb 59f 61f
2:06 11 15 mph 1015.5mb 60f 61f
2:00 13 17 mph 1015.6mb 59f 61f
1:54 15 21 mph 1015.6mb 60f 61f
1:48 11 18 mph 1015.7mb 60f 62f
1:42 13 17 mph 1015.7mb 61f 62f
1:36 13 18 mph 1015.7mb 61f 62f
1:30 14 18 mph 1015.7mb 60f 62f
1:24 14 20 mph 1015.6mb 60f 62f
1:18 13 18 mph 1015.6mb 61f 62f
1:12 11 20 mph 1015.6mb 61f 62f
1:06 15 21 mph 1015.6mb 62f 62f
1:00 13 18 mph 1015.6mb 61f 62f
12:54 11 17 mph 1015.7mb 62f 62f
12:48 10 20 mph 1015.7mb 62f 62f
12:42 14 21 mph 1015.7mb 62f 62f
12:36 15 20 mph 1015.7mb 62f 62f
12:30 15 22 mph 1015.7mb 62f 62f
12:24 14 21 mph 1015.7mb 62f 62f
12:18 15 21 mph 1015.6mb 62f 62f
12:12 13 20 mph 1015.7mb 62f 62f
12:06 18 23 mph 1015.7mb 62f 62f
12:00 13 20 mph 1015.7mb 62f 62f
11:54 17 23 mph 1015.6mb 61f 62f
11:48 17 21 mph 1015.6mb 61f 62f
11:42 18 24 mph 1015.6mb 62f 62f
11:36 15 23 mph 1015.6mb 62f 62f
11:30 18 24 mph 1015.6mb 62f 62f
11:24 17 23 mph 1015.7mb 62f 62f
10:54 18 24 mph 1015.6mb 63f 62f
10:48 18 23 mph 1015.6mb 63f 62f
10:42 17 22 mph 1015.5mb 63f 62f
10:36 20 24 mph 1015.5mb 63f 62f
10:30 16 22 mph 1015.6mb 63f 62f
10:24 15 21 mph 1015.6mb 62f 62f
10:18 17 22 mph 1015.5mb 62f 62f
10:12 17 23 mph 1015.5mb 62f 62f
10:06 17 23 mph 1015.4mb 62f 62f
10:00 17 23 mph 1015.3mb 62f 62f
9:54 16 22 mph 1015.3mb 62f 62f
9:48 16 22 mph 1015.3mb 62f 61f
9:42 14 23 mph 1015.3mb 62f 61f
9:36 18 22 mph 1015.3mb 62f 61f
9:30 17 23 mph 1015.3mb 62f 62f
9:24 18 22 mph 1015.2mb 62f 62f
9:18 17 23 mph 1015.2mb 62f 61f
9:12 18 22 mph 1015.2mb 62f 61f
9:06 15 22 mph 1015.3mb 62f 61f
9:00 16 23 mph 1015.3mb 62f 61f
6:54 10 22 mph 1015mb 61f 60f
6:48 15 23 mph 1014.9mb 62f 60f
5:54 14 18 mph 1014.8mb 62f 59f
5:48 13 16 mph 1014.7mb 62f 59f
4:54 20 28 mph 1014.7mb 62f 60f
4:48 18 24 mph 1014.7mb 61f 60f
3:54 17 24 mph 1014.8mb 62f 60f
3:48 17 22 mph 1014.8mb 62f 60f
2:54 20 25 mph 1014.9mb 60f 61f
2:48 18 24 mph 1014.9mb 60f 60f